createdAt,value
2018-01-30T00:00:06.895Z,0.70
2018-01-30T00:02:33.381Z,0.82
2018-01-30T00:04:59.941Z,0.80
2018-01-30T00:07:26.541Z,1.10
2018-01-30T00:09:53.201Z,1.00
2018-01-30T00:12:19.793Z,1.00
2018-01-30T00:14:46.382Z,0.90
2018-01-30T00:17:12.957Z,1.00
2018-01-30T00:19:39.526Z,0.90
2018-01-30T00:22:06.119Z,1.10
2018-01-30T00:24:32.722Z,1.05
2018-01-30T00:26:59.309Z,0.98
2018-01-30T00:29:25.846Z,0.93
2018-01-30T00:31:52.409Z,0.80
2018-01-30T00:34:19.033Z,0.85
2018-01-30T00:36:46.375Z,1.05
2018-01-30T00:39:12.935Z,0.80
2018-01-30T00:41:39.508Z,0.90
2018-01-30T00:44:06.099Z,0.90
2018-01-30T00:46:32.706Z,0.80
2018-01-30T00:48:59.398Z,0.50
2018-01-30T00:51:25.994Z,0.60
2018-01-30T00:53:52.568Z,0.45
2018-01-30T00:56:19.154Z,0.60
2018-01-30T00:58:45.783Z,0.40
2018-01-30T01:01:12.347Z,0.60
2018-01-30T01:03:39.710Z,0.60
2018-01-30T01:06:06.340Z,0.75
2018-01-30T01:08:33.655Z,0.70
2018-01-30T01:11:00.245Z,1.02
2018-01-30T01:13:26.807Z,1.08
2018-01-30T01:15:53.356Z,0.80
2018-01-30T01:18:19.930Z,1.10
2018-01-30T01:20:46.548Z,0.90
2018-01-30T01:23:13.126Z,0.80
2018-01-30T01:25:39.710Z,1.10
2018-01-30T01:28:06.302Z,1.00
2018-01-30T01:30:32.886Z,1.08
2018-01-30T01:32:59.478Z,1.00
2018-01-30T01:35:26.033Z,0.80
2018-01-30T01:37:52.626Z,1.10
2018-01-30T01:40:19.961Z,1.15
2018-01-30T01:42:46.521Z,0.73
2018-01-30T01:45:13.150Z,1.00
2018-01-30T01:47:39.745Z,0.80
2018-01-30T01:50:06.461Z,0.70
2018-01-30T01:52:33.049Z,0.98
2018-01-30T01:54:59.633Z,0.73
2018-01-30T01:57:26.207Z,0.77
2018-01-30T01:59:53.554Z,0.85
2018-01-30T02:02:20.145Z,0.88
2018-01-30T02:04:46.725Z,0.80
2018-01-30T02:07:13.322Z,0.70
2018-01-30T02:09:39.905Z,0.90
2018-01-30T02:12:06.524Z,0.70
2018-01-30T02:14:33.113Z,0.77
2018-01-30T02:17:00.450Z,0.68
2018-01-30T02:19:27.235Z,0.60
2018-01-30T02:21:53.882Z,0.60
2018-01-30T02:24:20.531Z,0.70
2018-01-30T02:26:47.111Z,0.88
2018-01-30T02:29:13.689Z,0.70
2018-01-30T02:31:40.285Z,0.60
2018-01-30T02:34:06.979Z,0.73
2018-01-30T02:36:33.573Z,0.65
2018-01-30T02:39:00.189Z,0.50
2018-01-30T02:41:27.567Z,0.60
2018-01-30T02:43:54.866Z,0.62
2018-01-30T02:46:21.496Z,0.60
2018-01-30T02:48:48.063Z,0.70
2018-01-30T02:51:14.638Z,0.70
2018-01-30T02:53:41.222Z,0.57
2018-01-30T02:56:07.830Z,0.40
2018-01-30T02:58:34.409Z,1.12
2018-01-30T03:01:01.081Z,0.50
2018-01-30T03:03:27.706Z,0.70
2018-01-30T03:05:54.350Z,0.50
2018-01-30T03:08:21.664Z,0.50
2018-01-30T03:10:48.242Z,0.55
2018-01-30T03:13:14.910Z,0.70
2018-01-30T03:15:41.478Z,0.50
2018-01-30T03:18:08.053Z,1.02
2018-01-30T03:20:35.386Z,0.65
2018-01-30T03:23:02.097Z,0.47
2018-01-30T03:25:28.732Z,0.50
2018-01-30T03:27:55.343Z,0.50
2018-01-30T03:30:21.904Z,0.68
2018-01-30T03:32:48.498Z,0.57
2018-01-30T03:35:15.085Z,0.32
2018-01-30T03:37:41.642Z,0.50
2018-01-30T03:40:08.258Z,0.40
2018-01-30T03:42:34.854Z,0.60
2018-01-30T03:45:01.434Z,0.60
2018-01-30T03:47:28.014Z,0.70
2018-01-30T03:49:54.693Z,0.70
2018-01-30T03:52:21.301Z,0.50
2018-01-30T03:54:47.866Z,0.50
2018-01-30T03:57:14.450Z,0.50
2018-01-30T03:59:41.004Z,0.50
2018-01-30T04:02:07.599Z,0.40
2018-01-30T04:04:34.162Z,0.50
2018-01-30T04:07:01.534Z,0.55
2018-01-30T04:09:28.262Z,0.70
2018-01-30T04:11:54.877Z,0.47
2018-01-30T04:14:21.487Z,0.55
2018-01-30T04:16:48.070Z,0.52
2018-01-30T04:19:15.366Z,0.47
2018-01-30T04:21:41.965Z,0.40
2018-01-30T04:24:09.281Z,0.43
2018-01-30T04:26:35.871Z,0.70
2018-01-30T04:29:02.449Z,0.65
2018-01-30T04:31:29.041Z,1.12
2018-01-30T04:33:55.994Z,0.65
2018-01-30T04:36:22.634Z,0.60
2018-01-30T04:38:49.231Z,0.50
2018-01-30T04:41:16.602Z,0.60
2018-01-30T04:43:43.226Z,0.50
2018-01-30T04:46:09.879Z,0.70
2018-01-30T04:48:36.438Z,0.50
2018-01-30T04:51:03.054Z,0.60
2018-01-30T04:53:30.350Z,2.47
2018-01-30T04:55:57.218Z,5.03
2018-01-30T04:58:23.770Z,3.25
2018-01-30T05:00:50.381Z,0.90
2018-01-30T05:03:17.014Z,0.60
2018-01-30T05:05:43.586Z,0.80
2018-01-30T05:08:10.959Z,0.80
2018-01-30T05:10:37.547Z,0.50
2018-01-30T05:13:04.121Z,0.47
2018-01-30T05:15:31.448Z,0.60
2018-01-30T05:17:58.042Z,0.73
2018-01-30T05:20:24.792Z,0.60
2018-01-30T05:22:51.331Z,0.70
2018-01-30T05:25:17.950Z,0.75
2018-01-30T05:27:44.534Z,0.93
2018-01-30T05:30:11.130Z,0.90
2018-01-30T05:32:37.701Z,0.75
2018-01-30T05:35:04.382Z,1.10
2018-01-30T05:37:30.930Z,0.98
2018-01-30T05:39:58.330Z,0.82
2018-01-30T05:42:25.926Z,1.25
2018-01-30T05:44:52.620Z,0.70
2018-01-30T05:47:19.298Z,0.40
2018-01-30T05:49:45.886Z,0.50
2018-01-30T05:52:12.495Z,0.60
2018-01-30T05:54:39.162Z,0.60
2018-01-30T05:57:06.694Z,0.52
2018-01-30T05:59:34.298Z,0.50
2018-01-30T06:02:01.705Z,1.60
2018-01-30T06:04:28.287Z,1.15
2018-01-30T06:06:55.164Z,0.90
2018-01-30T06:09:21.750Z,1.60
2018-01-30T06:11:48.323Z,1.58
2018-01-30T06:14:15.687Z,4.35
2018-01-30T06:16:42.998Z,4.80
2018-01-30T06:19:09.628Z,3.05
2018-01-30T06:21:36.205Z,2.00
2018-01-30T06:24:03.564Z,2.00
2018-01-30T06:26:30.882Z,2.28
2018-01-30T06:28:57.547Z,2.30
2018-01-30T06:31:24.957Z,1.90
2018-01-30T06:33:51.531Z,1.70
2018-01-30T06:36:18.146Z,1.85
2018-01-30T06:38:44.714Z,2.30
2018-01-30T06:41:12.177Z,2.40
2018-01-30T06:43:38.758Z,2.20
2018-01-30T06:46:05.328Z,2.85
2018-01-30T06:48:31.942Z,2.35
2018-01-30T06:50:58.606Z,2.60
2018-01-30T06:53:25.239Z,6.80
2018-01-30T06:55:51.891Z,6.20
2018-01-30T06:58:18.501Z,13.05
2018-01-30T07:00:45.198Z,2.90
2018-01-30T07:03:11.795Z,2.65
2018-01-30T07:05:38.427Z,3.42
2018-01-30T07:08:05.158Z,2.30
2018-01-30T07:10:31.753Z,2.40
2018-01-30T07:12:58.455Z,2.53
2018-01-30T07:15:25.868Z,2.62
2018-01-30T07:17:52.436Z,3.00
2018-01-30T07:20:19.037Z,2.83
2018-01-30T07:22:45.641Z,3.10
2018-01-30T07:25:12.278Z,3.60
2018-01-30T07:27:39.054Z,3.65
2018-01-30T07:30:06.674Z,3.72
2018-01-30T07:32:33.281Z,3.50
2018-01-30T07:34:59.886Z,4.15
2018-01-30T07:37:26.474Z,3.45
2018-01-30T07:39:53.814Z,3.00
2018-01-30T07:42:20.628Z,2.72
2018-01-30T07:44:48.123Z,2.33
2018-01-30T07:47:14.860Z,4.70
2018-01-30T07:49:42.193Z,4.70
2018-01-30T07:52:08.763Z,3.30
2018-01-30T07:54:35.431Z,3.00
2018-01-30T07:57:02.101Z,3.10
2018-01-30T07:59:28.776Z,2.97
2018-01-30T08:01:55.369Z,3.00
2018-01-30T08:04:22.173Z,2.90
2018-01-30T08:06:48.795Z,2.20
2018-01-30T08:09:16.143Z,3.97
2018-01-30T08:11:42.812Z,2.95
2018-01-30T08:14:09.421Z,4.35
2018-01-30T08:16:36.074Z,4.03
2018-01-30T08:19:02.702Z,3.10
2018-01-30T08:21:29.295Z,4.22
2018-01-30T08:23:57.213Z,3.35
2018-01-30T08:26:23.854Z,3.40
2018-01-30T08:28:50.513Z,3.22
2018-01-30T08:31:17.119Z,2.87
2018-01-30T08:33:43.757Z,3.33
2018-01-30T08:36:10.354Z,2.45
2018-01-30T08:38:36.943Z,2.53
2018-01-30T08:41:03.582Z,2.78
2018-01-30T08:43:30.190Z,2.92
2018-01-30T08:45:56.824Z,3.33
2018-01-30T08:48:23.466Z,2.85
2018-01-30T08:50:50.105Z,3.42
2018-01-30T08:53:16.706Z,2.83
2018-01-30T08:55:44.090Z,3.00
2018-01-30T08:58:10.669Z,3.05
2018-01-30T09:00:37.412Z,3.10
2018-01-30T09:03:03.982Z,3.22
2018-01-30T09:05:30.638Z,3.90
2018-01-30T09:07:57.270Z,3.75
2018-01-30T09:10:23.857Z,4.82
2018-01-30T09:12:50.463Z,5.00
2018-01-30T09:15:17.051Z,3.90
2018-01-30T09:17:43.753Z,4.00
2018-01-30T09:20:10.366Z,3.70
2018-01-30T09:22:36.944Z,4.45
2018-01-30T09:25:03.586Z,3.75
2018-01-30T09:27:30.216Z,2.80
2018-01-30T09:29:56.877Z,2.00
2018-01-30T09:32:23.493Z,1.70
2018-01-30T09:34:50.200Z,1.62
2018-01-30T09:37:17.526Z,1.70
2018-01-30T09:39:44.873Z,1.98
2018-01-30T09:42:11.557Z,1.60
2018-01-30T09:44:38.174Z,1.83
2018-01-30T09:47:05.468Z,1.80
2018-01-30T09:49:32.107Z,1.65
2018-01-30T09:51:58.693Z,1.50
2018-01-30T09:54:25.326Z,1.35
2018-01-30T09:56:51.977Z,1.10
2018-01-30T09:59:18.589Z,1.27
2018-01-30T10:01:45.185Z,1.73
2018-01-30T10:04:11.833Z,1.40
2018-01-30T10:06:38.451Z,1.23
2018-01-30T10:09:05.072Z,1.65
2018-01-30T10:11:31.667Z,1.70
2018-01-30T10:13:58.307Z,1.62
2018-01-30T10:16:24.922Z,2.28
2018-01-30T10:18:51.497Z,1.23
2018-01-30T10:21:18.167Z,1.17
2018-01-30T10:23:44.718Z,1.00
2018-01-30T10:26:11.334Z,2.40
2018-01-30T10:28:38.650Z,1.80
2018-01-30T10:31:05.222Z,1.67
2018-01-30T10:33:31.839Z,1.20
2018-01-30T10:35:58.412Z,1.27
2018-01-30T10:38:25.110Z,1.20
2018-01-30T10:40:51.755Z,1.15
2018-01-30T10:43:18.325Z,1.20
2018-01-30T10:45:44.957Z,2.60
2018-01-30T10:48:11.582Z,1.50
2018-01-30T10:50:38.188Z,0.65
2018-01-30T10:53:04.833Z,0.98
2018-01-30T10:55:31.427Z,1.30
2018-01-30T10:57:58.077Z,1.20
2018-01-30T11:00:24.758Z,0.70
2018-01-30T11:02:52.107Z,0.68
2018-01-30T11:05:18.729Z,0.95
2018-01-30T11:07:45.330Z,1.10
2018-01-30T11:10:12.038Z,0.90
2018-01-30T11:12:39.470Z,1.42
2018-01-30T11:15:06.092Z,0.98
2018-01-30T11:17:32.714Z,1.15
2018-01-30T11:19:59.374Z,1.20
2018-01-30T11:22:25.966Z,1.10
2018-01-30T11:24:52.589Z,1.35
2018-01-30T11:27:19.245Z,1.10
2018-01-30T11:29:45.856Z,1.00
2018-01-30T11:32:12.466Z,2.05
2018-01-30T11:34:39.074Z,0.77
2018-01-30T11:37:05.663Z,1.27
2018-01-30T11:39:32.282Z,0.90
2018-01-30T11:41:59.642Z,2.40
2018-01-30T11:44:26.274Z,1.10
2018-01-30T11:46:52.925Z,0.90
2018-01-30T11:49:20.258Z,1.90
2018-01-30T11:51:46.850Z,0.85
2018-01-30T11:54:13.523Z,0.90
2018-01-30T11:56:40.134Z,0.85
2018-01-30T11:59:06.718Z,0.70
2018-01-30T12:01:33.379Z,0.70
2018-01-30T12:03:59.998Z,0.80
2018-01-30T12:06:27.354Z,0.75
2018-01-30T12:08:54.015Z,0.77
2018-01-30T12:11:20.611Z,0.88
2018-01-30T12:13:47.218Z,0.65
2018-01-30T12:16:13.904Z,0.80
2018-01-30T12:18:40.563Z,0.80
2018-01-30T12:21:07.142Z,0.60
2018-01-30T12:23:33.734Z,0.60
2018-01-30T12:26:00.338Z,0.80
2018-01-30T12:28:27.637Z,1.27
2018-01-30T12:30:54.314Z,1.20
2018-01-30T12:33:21.853Z,1.52
2018-01-30T12:35:48.473Z,0.98
2018-01-30T12:38:15.039Z,34.22
2018-01-30T12:40:41.640Z,8.10
2018-01-30T12:43:08.258Z,1.20
2018-01-30T12:45:35.571Z,1.10
2018-01-30T12:48:02.206Z,0.80
2018-01-30T12:50:28.786Z,0.70
2018-01-30T12:52:56.194Z,0.80
2018-01-30T12:55:22.815Z,0.70
2018-01-30T12:57:49.426Z,0.70
2018-01-30T13:00:16.082Z,0.80
2018-01-30T13:02:42.690Z,0.80
2018-01-30T13:05:09.411Z,0.80
2018-01-30T13:07:36.018Z,0.95
2018-01-30T13:10:02.706Z,1.12
2018-01-30T13:12:29.359Z,1.23
2018-01-30T13:14:55.960Z,0.80
2018-01-30T13:17:22.609Z,0.95
2018-01-30T13:19:50.591Z,4.25
2018-01-30T13:22:17.215Z,6.28
2018-01-30T13:24:44.961Z,2.95
2018-01-30T13:27:11.556Z,2.83
2018-01-30T13:29:38.225Z,4.50
2018-01-30T13:32:05.119Z,6.40
2018-01-30T13:34:31.736Z,2.92
2018-01-30T13:36:58.319Z,1.60
2018-01-30T13:39:25.076Z,3.87
2018-01-30T13:41:51.662Z,2.17
2018-01-30T13:44:18.275Z,2.00
2018-01-30T13:46:44.953Z,1.90
2018-01-30T13:49:11.536Z,2.58
2018-01-30T13:51:38.242Z,1.90
2018-01-30T13:54:06.868Z,1.60
2018-01-30T13:56:34.194Z,1.10
2018-01-30T13:59:01.262Z,2.78
2018-01-30T14:01:27.848Z,5.25
2018-01-30T14:03:54.443Z,4.68
2018-01-30T14:06:21.099Z,6.10
2018-01-30T14:08:48.702Z,5.72
2018-01-30T14:11:15.318Z,1.33
2018-01-30T14:13:41.892Z,0.90
2018-01-30T14:16:08.497Z,1.00
2018-01-30T14:18:35.162Z,1.08
2018-01-30T14:21:01.747Z,1.12
2018-01-30T14:23:29.131Z,1.33
2018-01-30T14:25:55.752Z,1.00
2018-01-30T14:28:22.474Z,0.75
2018-01-30T14:30:49.814Z,0.80
2018-01-30T14:33:16.530Z,1.10
2018-01-30T14:35:43.104Z,1.00
2018-01-30T14:38:10.470Z,0.70
2018-01-30T14:40:37.170Z,0.70
2018-01-30T14:43:03.778Z,1.30
2018-01-30T14:45:30.374Z,1.25
2018-01-30T14:47:57.002Z,1.02
2018-01-30T14:50:24.351Z,0.90
2018-01-30T14:52:51.000Z,1.00
2018-01-30T14:55:17.609Z,1.00
2018-01-30T14:57:44.229Z,0.80
2018-01-30T15:00:10.904Z,0.70
2018-01-30T15:02:37.552Z,0.80
2018-01-30T15:05:04.925Z,0.77
2018-01-30T15:07:31.585Z,1.37
2018-01-30T15:09:58.312Z,1.60
2018-01-30T15:12:24.903Z,1.70
2018-01-30T15:14:51.584Z,1.80
2018-01-30T15:17:18.192Z,4.37
2018-01-30T15:19:45.510Z,4.97
2018-01-30T15:22:12.150Z,3.85
2018-01-30T15:24:38.747Z,4.95
2018-01-30T15:27:05.354Z,3.10
2018-01-30T15:29:32.741Z,2.83
2018-01-30T15:31:59.313Z,2.12
2018-01-30T15:34:26.010Z,2.20
2018-01-30T15:36:52.665Z,2.67
2018-01-30T15:39:19.255Z,5.37
2018-01-30T15:41:46.602Z,3.92
2018-01-30T15:44:13.234Z,2.10
2018-01-30T15:46:40.608Z,1.05
2018-01-30T15:49:07.344Z,4.00
2018-01-30T15:51:34.715Z,13.62
2018-01-30T15:54:01.343Z,39.03
2018-01-30T15:56:28.681Z,11.30
2018-01-30T15:58:55.294Z,4.85
2018-01-30T16:01:21.910Z,1.90
2018-01-30T16:03:48.534Z,1.08
2018-01-30T16:06:15.146Z,1.50
2018-01-30T16:08:42.528Z,1.52
2018-01-30T16:11:09.132Z,2.67
2018-01-30T16:13:36.518Z,2.80
2018-01-30T16:16:03.183Z,1.73
2018-01-30T16:18:29.791Z,1.62
2018-01-30T16:20:56.459Z,1.55
2018-01-30T16:23:23.096Z,3.15
2018-01-30T16:25:49.770Z,2.50
2018-01-30T16:28:16.357Z,2.85
2018-01-30T16:30:43.023Z,2.90
2018-01-30T16:33:09.657Z,6.15
2018-01-30T16:35:36.296Z,21.30
2018-01-30T16:38:02.919Z,58.92
2018-01-30T16:40:29.519Z,35.55
2018-01-30T16:42:56.090Z,9.40
2018-01-30T16:45:22.722Z,5.22
2018-01-30T16:47:49.341Z,2.45
2018-01-30T16:50:15.962Z,2.70
2018-01-30T16:52:42.653Z,3.10
2018-01-30T16:55:09.322Z,2.55
2018-01-30T16:57:35.944Z,2.45
2018-01-30T17:00:02.678Z,1.80
2018-01-30T17:02:29.332Z,2.30
2018-01-30T17:04:55.927Z,2.10
2018-01-30T17:07:22.575Z,2.05
2018-01-30T17:09:49.237Z,2.05
2018-01-30T17:12:16.639Z,6.53
2018-01-30T17:14:43.290Z,11.30
2018-01-30T17:17:09.979Z,7.65
2018-01-30T17:19:36.601Z,5.93
2018-01-30T17:22:03.288Z,8.40
2018-01-30T17:24:29.894Z,8.00
2018-01-30T17:26:56.521Z,8.00
2018-01-30T17:29:23.911Z,6.03
2018-01-30T17:31:50.553Z,4.30
2018-01-30T17:34:17.183Z,3.53
2018-01-30T17:36:43.806Z,4.03
2018-01-30T17:39:11.167Z,9.52
2018-01-30T17:41:37.751Z,8.45
2018-01-30T17:44:04.383Z,7.90
2018-01-30T17:46:30.987Z,7.00
2018-01-30T17:48:57.598Z,6.30
2018-01-30T17:51:24.986Z,5.90
2018-01-30T17:53:51.642Z,5.50
2018-01-30T17:56:18.265Z,4.15
2018-01-30T17:58:44.903Z,5.75
2018-01-30T18:01:11.717Z,7.00
2018-01-30T18:03:39.142Z,7.30
2018-01-30T18:06:05.792Z,6.55
2018-01-30T18:08:33.266Z,7.15
2018-01-30T18:10:59.924Z,7.10
2018-01-30T18:13:26.616Z,7.10
2018-01-30T18:15:53.217Z,6.65
2018-01-30T18:18:19.836Z,4.75
2018-01-30T18:20:46.481Z,4.12
2018-01-30T18:23:13.122Z,5.00
2018-01-30T18:25:39.796Z,4.07
2018-01-30T18:28:06.434Z,3.15
2018-01-30T18:30:33.855Z,3.30
2018-01-30T18:33:00.523Z,2.85
2018-01-30T18:35:27.192Z,3.45
2018-01-30T18:37:54.563Z,3.53
2018-01-30T18:40:21.949Z,2.92
2018-01-30T18:42:48.658Z,2.50
2018-01-30T18:45:15.284Z,2.65
2018-01-30T18:47:42.723Z,2.53
2018-01-30T18:50:09.316Z,2.10
2018-01-30T18:52:35.978Z,2.30
2018-01-30T18:55:03.390Z,2.25
2018-01-30T18:57:29.990Z,1.95
2018-01-30T18:59:56.680Z,2.30
2018-01-30T19:02:23.371Z,2.40
2018-01-30T19:04:50.022Z,2.72
2018-01-30T19:07:16.676Z,2.40
2018-01-30T19:09:43.304Z,2.50
2018-01-30T19:12:10.706Z,2.37
2018-01-30T19:14:38.082Z,2.60
2018-01-30T19:17:04.766Z,2.10
2018-01-30T19:19:31.378Z,1.77
2018-01-30T19:21:58.020Z,1.65
2018-01-30T19:24:24.653Z,1.30
2018-01-30T19:26:51.290Z,1.67
2018-01-30T19:29:17.881Z,1.30
2018-01-30T19:31:44.503Z,1.83
2018-01-30T19:34:11.187Z,4.30
2018-01-30T19:36:37.806Z,3.90
2018-01-30T19:39:04.464Z,3.40
2018-01-30T19:41:31.074Z,3.30
2018-01-30T19:43:57.742Z,4.43
2018-01-30T19:46:25.102Z,5.00
2018-01-30T19:48:51.770Z,4.43
2018-01-30T19:51:18.411Z,3.20
2018-01-30T19:53:45.394Z,3.37
2018-01-30T19:56:12.075Z,2.53
2018-01-30T19:58:39.432Z,2.12
2018-01-30T20:01:06.095Z,2.03
2018-01-30T20:03:32.768Z,1.90
2018-01-30T20:05:59.453Z,1.83
2018-01-30T20:08:26.079Z,1.60
2018-01-30T20:10:52.747Z,2.00
2018-01-30T20:13:19.435Z,1.42
2018-01-30T20:15:46.079Z,2.37
2018-01-30T20:18:12.726Z,4.00
2018-01-30T20:20:39.342Z,3.20
2018-01-30T20:23:05.950Z,2.47
2018-01-30T20:25:32.609Z,2.22
2018-01-30T20:27:59.200Z,3.35
2018-01-30T20:30:25.850Z,4.65
2018-01-30T20:32:52.422Z,6.00
2018-01-30T20:35:19.087Z,3.37
2018-01-30T20:37:46.475Z,5.03
2018-01-30T20:40:13.114Z,11.10
2018-01-30T20:42:39.723Z,2.95
2018-01-30T20:45:06.350Z,2.87
2018-01-30T20:47:33.771Z,2.80
2018-01-30T20:50:00.434Z,3.30
2018-01-30T20:52:27.126Z,3.50
2018-01-30T20:54:53.821Z,4.05
2018-01-30T20:57:20.446Z,3.70
2018-01-30T20:59:47.051Z,3.58
2018-01-30T21:02:13.718Z,3.40
2018-01-30T21:04:40.418Z,4.18
2018-01-30T21:07:07.051Z,3.03
2018-01-30T21:09:33.699Z,3.60
2018-01-30T21:12:00.353Z,2.80
2018-01-30T21:14:26.999Z,4.25
2018-01-30T21:16:53.610Z,4.45
2018-01-30T21:19:20.218Z,3.92
2018-01-30T21:21:46.926Z,2.80
2018-01-30T21:24:13.560Z,3.22
2018-01-30T21:26:40.157Z,6.00
2018-01-30T21:29:06.782Z,13.00
2018-01-30T21:31:33.520Z,5.75
2018-01-30T21:34:00.159Z,4.30
2018-01-30T21:36:26.774Z,4.47
2018-01-30T21:38:54.115Z,3.42
2018-01-30T21:41:20.780Z,4.20
2018-01-30T21:43:47.437Z,2.95
2018-01-30T21:46:14.058Z,2.75
2018-01-30T21:48:40.678Z,2.35
2018-01-30T21:51:08.057Z,2.12
2018-01-30T21:53:34.663Z,3.03
2018-01-30T21:56:01.251Z,2.55
2018-01-30T21:58:27.861Z,2.05
2018-01-30T22:00:55.264Z,1.75
2018-01-30T22:03:21.977Z,1.40
2018-01-30T22:05:48.614Z,1.37
2018-01-30T22:08:15.229Z,1.58
2018-01-30T22:10:41.945Z,1.30
2018-01-30T22:13:09.343Z,1.50
2018-01-30T22:15:35.889Z,1.37
2018-01-30T22:18:02.518Z,1.52
2018-01-30T22:20:29.093Z,1.55
2018-01-30T22:22:56.535Z,1.75
2018-01-30T22:25:23.914Z,1.70
2018-01-30T22:27:51.271Z,2.20
2018-01-30T22:30:17.894Z,2.60
2018-01-30T22:32:44.489Z,2.70
2018-01-30T22:35:11.145Z,2.37
2018-01-30T22:37:37.780Z,2.15
2018-01-30T22:40:04.410Z,2.70
2018-01-30T22:42:31.027Z,2.80
2018-01-30T22:44:57.675Z,2.72
